10chiemaru — JD2376 — position and weather

sailwx.info

Track history (hours):
 
Tides and Currents Weather Stations Pressure Air Temp Water Temp Dewpoint Dewpoint Depression Visibility Wind Speed Wind Dir Waves Ship Positions

10chiemaru

Last reported at 2015-Feb-27 08:08 UTC. Time now 2015-Feb-28 19:24 UTC.
Position N 35°31' E 139°51'.

Length 72 m; draft 3.7 m.

Type: Ship. MMSI: 431000147.

Date/timePositionNaut miles runAvg speedWind from/ knotsBaromVisibWave heightAir tempDewpointWater temp
2015-Feb-27 08:08N 35°31' E 139°51'611.0
2015-Feb-27 07:33N 35°27' E 139°45'4 3.6
2015-Feb-27 06:33N 35°28' E 139°40'0 0.0
2015-Feb-27 05:33N 35°28' E 139°40'4 3.7
2015-Feb-27 04:33N 35°25' E 139°42'2 2.4
2015-Feb-27 03:33N 35°24' E 139°40'0 0.0
2015-Feb-27 02:33N 35°24' E 139°40'0 0.0
2015-Feb-27 01:33N 35°24' E 139°40'0 0.0
2015-Feb-27 00:33N 35°24' E 139°40'0 0.4
2015-Feb-26 23:33N 35°24' E 139°40'2 2.1
2015-Feb-26 22:33N 35°25' E 139°42'4 4.4
2015-Feb-26 21:33N 35°29' E 139°39'0 0.0
2015-Feb-26 20:33N 35°29' E 139°39'0 0.0
2015-Feb-26 19:33N 35°29' E 139°39'0 0.0
2015-Feb-26 18:33N 35°29' E 139°39'0 0.0
2015-Feb-26 17:33N 35°29' E 139°39'0 0.0
2015-Feb-26 16:33N 35°29' E 139°39'0 0.0
2015-Feb-26 15:33N 35°29' E 139°39'0 0.0
2015-Feb-26 14:33N 35°29' E 139°39'0 0.0
2015-Feb-26 13:33N 35°29' E 139°39'0 0.0
2015-Feb-26 12:33N 35°29' E 139°39'0 0.0
2015-Feb-26 11:33N 35°29' E 139°39'0 0.0
2015-Feb-26 10:33N 35°29' E 139°39'0 0.0
2015-Feb-26 09:33N 35°29' E 139°39'0 0.0
2015-Feb-26 08:33N 35°29' E 139°39'0 0.0
2015-Feb-26 07:33N 35°29' E 139°39'0 0.0
2015-Feb-26 06:33N 35°29' E 139°39'0 0.0
2015-Feb-26 05:33N 35°29' E 139°39'3 3.3
2015-Feb-26 04:33N 35°27' E 139°42'4 3.6
2015-Feb-26 03:34N 35°24' E 139°45'5 4.7
2015-Feb-26 02:33N 35°25' E 139°39'0 0.0
2015-Feb-26 01:33N 35°25' E 139°39'0 0.0
2015-Feb-26 00:33N 35°25' E 139°39'4 0.6
2015-Feb-25 18:15N 35°23' E 139°44'0 0.0
2015-Feb-25 17:33N 35°23' E 139°44'0 0.0
2015-Feb-25 16:33N 35°23' E 139°44'0 0.0
2015-Feb-25 15:33N 35°23' E 139°44'0 0.0
2015-Feb-25 14:33N 35°23' E 139°44'0 0.0
2015-Feb-25 13:30N 35°23' E 139°44'0 0.0
2015-Feb-25 12:33N 35°23' E 139°44'0 0.0
2015-Feb-25 11:33N 35°23' E 139°44'0 0.0
2015-Feb-25 10:33N 35°23' E 139°44'0 0.0
2015-Feb-25 09:33N 35°23' E 139°44'2 2.0
2015-Feb-25 08:33N 35°21' E 139°43'1211.6
2015-Feb-25 07:33N 35°10' E 139°46'  
2015-Feb-22 08:33N 35°13' E 139°46'1111.2
2015-Feb-22 07:33N 35°24' E 139°43'12 2.3
2015-Feb-22 02:31N 35°32' E 139°54'1111.4
2015-Feb-22 01:34N 35°26' E 139°43'3 3.0
2015-Feb-22 00:33N 35°28' E 139°40'0 0.0
2015-Feb-21 23:33N 35°28' E 139°40'4 3.9
2015-Feb-21 22:33N 35°25' E 139°43'2 1.7
2015-Feb-21 21:31N 35°23' E 139°44'0 0.1
2015-Feb-21 20:28N 35°23' E 139°44'0 0.0
2015-Feb-21 19:31N 35°23' E 139°44'0 0.0
2015-Feb-21 18:31N 35°23' E 139°44'0 0.0
2015-Feb-21 17:28N 35°23' E 139°44'0 0.1
2015-Feb-21 16:31N 35°23' E 139°44'0 0.0
2015-Feb-21 15:31N 35°23' E 139°44'0 0.0
2015-Feb-21 14:31N 35°23' E 139°44'0 0.0
2015-Feb-21 13:31N 35°23' E 139°44'0 0.0
2015-Feb-21 12:31N 35°23' E 139°44'0 0.0
2015-Feb-21 11:31N 35°23' E 139°44'0 0.0
2015-Feb-21 10:31N 35°23' E 139°44'0 0.1
2015-Feb-21 09:31N 35°23' E 139°44'0 0.1
2015-Feb-21 08:31N 35°23' E 139°44'0 0.0
2015-Feb-21 07:31N 35°23' E 139°44'3 3.1
2015-Feb-21 06:33N 35°24' E 139°40'1 1.1
2015-Feb-21 05:33N 35°24' E 139°40'0 0.0
2015-Feb-21 04:33N 35°24' E 139°40'0 0.0
2015-Feb-21 03:33N 35°24' E 139°40'0 0.0
2015-Feb-21 02:33N 35°24' E 139°40'2 1.6
2015-Feb-21 01:33N 35°23' E 139°41'2 2.3
2015-Feb-21 00:33N 35°23' E 139°43'0 0.0
2015-Feb-20 23:33N 35°23' E 139°43'0 0.0
2015-Feb-20 22:33N 35°23' E 139°43'0 0.0
2015-Feb-20 21:33N 35°23' E 139°43'0 0.0
2015-Feb-20 20:33N 35°23' E 139°43'0 0.1
2015-Feb-20 19:33N 35°23' E 139°44'0 0.0
2015-Feb-20 18:33N 35°23' E 139°44'0 0.1
2015-Feb-20 17:33N 35°23' E 139°43'0 0.0
2015-Feb-20 16:33N 35°23' E 139°43'0 0.0
2015-Feb-20 15:33N 35°23' E 139°43'0 0.0
2015-Feb-20 14:33N 35°23' E 139°43'5 4.6
2015-Feb-20 13:33N 35°18' E 139°45'1110.9
2015-Feb-20 12:33N 35°07' E 139°45'1312.2
2015-Feb-20 11:29N 34°56' E 139°36'7 0.3
2015-Feb-19 09:19N 34°60' E 139°29'911.4
2015-Feb-19 08:33N 35°05' E 139°38'1211.8
2015-Feb-19 07:33N 35°14' E 139°46'1110.8
2015-Feb-19 06:33N 35°25' E 139°43'7 7.1
2015-Feb-19 05:33N 35°31' E 139°46'0 0.0
2015-Feb-19 04:33N 35°31' E 139°46'0 0.0
2015-Feb-19 03:33N 35°31' E 139°46'1 1.0
2015-Feb-19 02:33N 35°30' E 139°47'8 8.5
2015-Feb-19 01:33N 35°23' E 139°41'2 1.6
2015-Feb-19 00:33N 35°24' E 139°40'0 0.0
2015-Feb-18 23:33N 35°24' E 139°40'4 3.6
2015-Feb-18 22:33N 35°23' E 139°44'0 0.1
2015-Feb-18 21:33N 35°23' E 139°44'0 0.0
2015-Feb-18 20:33N 35°23' E 139°44'0 0.0
2015-Feb-18 19:33N 35°23' E 139°44'0 0.0
2015-Feb-18 18:33N 35°23' E 139°44'0 0.1
2015-Feb-18 17:33N 35°23' E 139°44'0 0.1
2015-Feb-18 16:33N 35°23' E 139°44'0 0.0
2015-Feb-18 15:33N 35°23' E 139°44'0 0.0
2015-Feb-18 14:33N 35°23' E 139°44'0 0.0
2015-Feb-18 13:33N 35°23' E 139°44'0 0.0
2015-Feb-18 12:33N 35°23' E 139°44'0 0.0
2015-Feb-18 11:33N 35°23' E 139°44'0 0.0
2015-Feb-18 10:33N 35°23' E 139°44'0 0.0
2015-Feb-18 09:33N 35°23' E 139°44'0 0.0
2015-Feb-18 08:33N 35°23' E 139°44'0 0.0
2015-Feb-18 07:33N 35°23' E 139°44'0 0.0
2015-Feb-18 06:33N 35°23' E 139°44'3 2.7
2015-Feb-18 05:33N 35°23' E 139°41'2 1.5
2015-Feb-18 04:33N 35°25' E 139°39'0 0.0
2015-Feb-18 03:33N 35°25' E 139°39'0 0.0
2015-Feb-18 02:33N 35°25' E 139°39'1 1.1
2015-Feb-18 01:33N 35°24' E 139°40'3 2.9
2015-Feb-18 00:33N 35°23' E 139°44'0 0.0
2015-Feb-17 23:33N 35°23' E 139°44'6 6.3
2015-Feb-17 22:33N 35°17' E 139°46'1010.3
2015-Feb-17 21:33N 35°07' E 139°45'  
Track history (hours):
 
Tides and Currents Weather Stations Pressure Air Temp Water Temp Dewpoint Dewpoint Depression Visibility Wind Speed Wind Dir Waves Ship Positions

10chiemaru

Last reported at 2015-Feb-27 08:08 UTC. Time now 2015-Feb-28 19:24 UTC.
Position N 35°31' E 139°51'.

Length 72 m; draft 3.7 m.

Type: Ship. MMSI: 431000147.

Date/timePositionNaut miles runAvg speedWind from/ knotsBaromVisibWave heightAir tempDewpointWater temp
2015-Feb-27 08:08N 35°31' E 139°51'611.0
2015-Feb-27 07:33N 35°27' E 139°45'4 3.6
2015-Feb-27 06:33N 35°28' E 139°40'0 0.0
2015-Feb-27 05:33N 35°28' E 139°40'4 3.7
2015-Feb-27 04:33N 35°25' E 139°42'2 2.4
2015-Feb-27 03:33N 35°24' E 139°40'0 0.0
2015-Feb-27 02:33N 35°24' E 139°40'0 0.0
2015-Feb-27 01:33N 35°24' E 139°40'0 0.0
2015-Feb-27 00:33N 35°24' E 139°40'0 0.4
2015-Feb-26 23:33N 35°24' E 139°40'2 2.1
2015-Feb-26 22:33N 35°25' E 139°42'4 4.4
2015-Feb-26 21:33N 35°29' E 139°39'0 0.0
2015-Feb-26 20:33N 35°29' E 139°39'0 0.0
2015-Feb-26 19:33N 35°29' E 139°39'0 0.0
2015-Feb-26 18:33N 35°29' E 139°39'0 0.0
2015-Feb-26 17:33N 35°29' E 139°39'0 0.0
2015-Feb-26 16:33N 35°29' E 139°39'0 0.0
2015-Feb-26 15:33N 35°29' E 139°39'0 0.0
2015-Feb-26 14:33N 35°29' E 139°39'0 0.0
2015-Feb-26 13:33N 35°29' E 139°39'0 0.0
2015-Feb-26 12:33N 35°29' E 139°39'0 0.0
2015-Feb-26 11:33N 35°29' E 139°39'0 0.0
2015-Feb-26 10:33N 35°29' E 139°39'0 0.0
2015-Feb-26 09:33N 35°29' E 139°39'0 0.0
2015-Feb-26 08:33N 35°29' E 139°39'0 0.0
2015-Feb-26 07:33N 35°29' E 139°39'0 0.0
2015-Feb-26 06:33N 35°29' E 139°39'0 0.0
2015-Feb-26 05:33N 35°29' E 139°39'3 3.3
2015-Feb-26 04:33N 35°27' E 139°42'4 3.6
2015-Feb-26 03:34N 35°24' E 139°45'5 4.7
2015-Feb-26 02:33N 35°25' E 139°39'0 0.0
2015-Feb-26 01:33N 35°25' E 139°39'0 0.0
2015-Feb-26 00:33N 35°25' E 139°39'4 0.6
2015-Feb-25 18:15N 35°23' E 139°44'0 0.0
2015-Feb-25 17:33N 35°23' E 139°44'0 0.0
2015-Feb-25 16:33N 35°23' E 139°44'0 0.0
2015-Feb-25 15:33N 35°23' E 139°44'0 0.0
2015-Feb-25 14:33N 35°23' E 139°44'0 0.0
2015-Feb-25 13:30N 35°23' E 139°44'0 0.0
2015-Feb-25 12:33N 35°23' E 139°44'0 0.0
2015-Feb-25 11:33N 35°23' E 139°44'0 0.0
2015-Feb-25 10:33N 35°23' E 139°44'0 0.0
2015-Feb-25 09:33N 35°23' E 139°44'2 2.0
2015-Feb-25 08:33N 35°21' E 139°43'1211.6
2015-Feb-25 07:33N 35°10' E 139°46'  
2015-Feb-22 08:33N 35°13' E 139°46'1111.2
2015-Feb-22 07:33N 35°24' E 139°43'12 2.3
2015-Feb-22 02:31N 35°32' E 139°54'1111.4
2015-Feb-22 01:34N 35°26' E 139°43'3 3.0
2015-Feb-22 00:33N 35°28' E 139°40'0 0.0
2015-Feb-21 23:33N 35°28' E 139°40'4 3.9
2015-Feb-21 22:33N 35°25' E 139°43'2 1.7
2015-Feb-21 21:31N 35°23' E 139°44'0 0.1
2015-Feb-21 20:28N 35°23' E 139°44'0 0.0
2015-Feb-21 19:31N 35°23' E 139°44'0 0.0
2015-Feb-21 18:31N 35°23' E 139°44'0 0.0
2015-Feb-21 17:28N 35°23' E 139°44'0 0.1
2015-Feb-21 16:31N 35°23' E 139°44'0 0.0
2015-Feb-21 15:31N 35°23' E 139°44'0 0.0
2015-Feb-21 14:31N 35°23' E 139°44'0 0.0
2015-Feb-21 13:31N 35°23' E 139°44'0 0.0
2015-Feb-21 12:31N 35°23' E 139°44'0 0.0
2015-Feb-21 11:31N 35°23' E 139°44'0 0.0
2015-Feb-21 10:31N 35°23' E 139°44'0 0.1
2015-Feb-21 09:31N 35°23' E 139°44'0 0.1
2015-Feb-21 08:31N 35°23' E 139°44'0 0.0
2015-Feb-21 07:31N 35°23' E 139°44'3 3.1
2015-Feb-21 06:33N 35°24' E 139°40'1 1.1
2015-Feb-21 05:33N 35°24' E 139°40'0 0.0
2015-Feb-21 04:33N 35°24' E 139°40'0 0.0
2015-Feb-21 03:33N 35°24' E 139°40'0 0.0
2015-Feb-21 02:33N 35°24' E 139°40'2 1.6
2015-Feb-21 01:33N 35°23' E 139°41'2 2.3
2015-Feb-21 00:33N 35°23' E 139°43'0 0.0
2015-Feb-20 23:33N 35°23' E 139°43'0 0.0
2015-Feb-20 22:33N 35°23' E 139°43'0 0.0
2015-Feb-20 21:33N 35°23' E 139°43'0 0.0
2015-Feb-20 20:33N 35°23' E 139°43'0 0.1
2015-Feb-20 19:33N 35°23' E 139°44'0 0.0
2015-Feb-20 18:33N 35°23' E 139°44'0 0.1
2015-Feb-20 17:33N 35°23' E 139°43'0 0.0
2015-Feb-20 16:33N 35°23' E 139°43'0 0.0
2015-Feb-20 15:33N 35°23' E 139°43'0 0.0
2015-Feb-20 14:33N 35°23' E 139°43'5 4.6
2015-Feb-20 13:33N 35°18' E 139°45'1110.9
2015-Feb-20 12:33N 35°07' E 139°45'1312.2
2015-Feb-20 11:29N 34°56' E 139°36'7 0.3
2015-Feb-19 09:19N 34°60' E 139°29'911.4
2015-Feb-19 08:33N 35°05' E 139°38'1211.8
2015-Feb-19 07:33N 35°14' E 139°46'1110.8
2015-Feb-19 06:33N 35°25' E 139°43'7 7.1
2015-Feb-19 05:33N 35°31' E 139°46'0 0.0
2015-Feb-19 04:33N 35°31' E 139°46'0 0.0
2015-Feb-19 03:33N 35°31' E 139°46'1 1.0
2015-Feb-19 02:33N 35°30' E 139°47'8 8.5
2015-Feb-19 01:33N 35°23' E 139°41'2 1.6
2015-Feb-19 00:33N 35°24' E 139°40'0 0.0
2015-Feb-18 23:33N 35°24' E 139°40'4 3.6
2015-Feb-18 22:33N 35°23' E 139°44'0 0.1
2015-Feb-18 21:33N 35°23' E 139°44'0 0.0
2015-Feb-18 20:33N 35°23' E 139°44'0 0.0
2015-Feb-18 19:33N 35°23' E 139°44'0 0.0
2015-Feb-18 18:33N 35°23' E 139°44'0 0.1
2015-Feb-18 17:33N 35°23' E 139°44'0 0.1
2015-Feb-18 16:33N 35°23' E 139°44'0 0.0
2015-Feb-18 15:33N 35°23' E 139°44'0 0.0
2015-Feb-18 14:33N 35°23' E 139°44'0 0.0
2015-Feb-18 13:33N 35°23' E 139°44'0 0.0
2015-Feb-18 12:33N 35°23' E 139°44'0 0.0
2015-Feb-18 11:33N 35°23' E 139°44'0 0.0
2015-Feb-18 10:33N 35°23' E 139°44'0 0.0
2015-Feb-18 09:33N 35°23' E 139°44'0 0.0
2015-Feb-18 08:33N 35°23' E 139°44'0 0.0
2015-Feb-18 07:33N 35°23' E 139°44'0 0.0
2015-Feb-18 06:33N 35°23' E 139°44'3 2.7
2015-Feb-18 05:33N 35°23' E 139°41'2 1.5
2015-Feb-18 04:33N 35°25' E 139°39'0 0.0
2015-Feb-18 03:33N 35°25' E 139°39'0 0.0
2015-Feb-18 02:33N 35°25' E 139°39'1 1.1
2015-Feb-18 01:33N 35°24' E 139°40'3 2.9
2015-Feb-18 00:33N 35°23' E 139°44'0 0.0
2015-Feb-17 23:33N 35°23' E 139°44'6 6.3
2015-Feb-17 22:33N 35°17' E 139°46'1010.3
2015-Feb-17 21:33N 35°07' E 139°45'  

Dump ship's entire track history